Nearby METAR Reports

 

KSFO - San Francisco, California, USA
Distance from station: NNW 8km
Updated: Mon, 24-Feb-2020 8:56pm PST
Few Clouds
Few Clouds
 Wind from WNW
Wind: WNW 8 mph , 13 km/h
Temperature: 54°F , 12°C
Dew Point: 45°F , 7°C
Humidity: 72%
Barometer: 30.29 inHg , 1025.7 hPa
Clouds: Few Clouds
Visibility: 10 miles , 16 km
Cloud details: Few Clouds 1000 ft
2020/02/25 04:56 KSFO 250456Z 29007KT 10SM FEW010 12/07 A3029 RMK AO2 SLP255 T01220067
KSQL - San Carlos Airpo, California, USA
Distance from station: ESE 8km
Updated: Mon, 24-Feb-2020 8:51pm PST
Few Clouds
Few Clouds
 Wind from calm
Wind: Calm
Temperature: 55°F , 13°C
Dew Point: 43°F , 6°C
Humidity: 63%
Barometer: 30.30 inHg , 1026.1 hPa
Clouds: Few Clouds
Visibility: 10 miles , 16 km
Cloud details: Few Clouds 300 ft
2020/02/25 04:51 KSQL 250451Z 00000KT 10SM FEW003 13/06 A3030 RMK LAST
 
KHAF - Half Moon Bay, California, USA
Distance from station: WSW 15km
Updated: Sat, 22-Feb-2020 10:00am PST
NOT Current

 
2020/02/22 18:00 KHAF 221800Z AUTO RMK AO2 PWINO
KOAK - Oakland, California, USA
Distance from station: NNE 21km
Updated: Mon, 24-Feb-2020 8:53pm PST
Clear
Clear
 Wind from WNW
Wind: WNW 5 mph , 7 km/h
Temperature: 55°F , 13°C
Dew Point: 46°F , 8°C
Humidity: 72%
Barometer: 30.31 inHg , 1026.4 hPa
Clouds: Clear
Visibility: 10 miles , 16 km
2020/02/25 04:53 KOAK 250453Z 30004KT 10SM CLR 13/08 A3031 RMK AO2 SLP262 T01280083
 
KPAO - Palo Alto, California, USA
Distance from station: ESE 21km
Updated: Mon, 24-Feb-2020 8:47pm PST
Clear
Clear
 Wind from varies
Wind: varies 7 mph , 11 km/h
Temperature: 52°F , 11°C
Dew Point: 45°F , 7°C
Humidity: 77%
Barometer: 30.29 inHg , 1025.7 hPa
Clouds: Clear
Visibility: 10 miles , 16 km
2020/02/25 04:47 KPAO 250447Z VRB06KT 10SM SKC 11/07 A3029 RMK LAST
KHWD - Hayward, California, USA
Distance from station: NE 23km
Updated: Mon, 24-Feb-2020 8:54pm PST
Clear
Clear
 Wind from calm
Wind: Calm
Temperature: 54°F , 12°C
Dew Point: 46°F , 8°C
Humidity: 77%
Barometer: 30.29 inHg , 1025.7 hPa
Clouds: Clear
Visibility: 10 miles , 16 km
2020/02/25 04:54 KHWD 250454Z 00000KT 10SM CLR 12/08 A3029 RMK AO2 SLP266 T01220078
 
KNUQ - Moffett Nas/Mtn, California, USA
Distance from station: ESE 30km
Updated: Thu, 21-Nov-2019 8:56am PST
NOT Current

 
Barometer: 29.86 inHg , 1011.2 hPa
2019/11/21 16:56 KNUQ 211656Z AUTO A2986 RMK AO2 SLP116 PWINO $
KSJC - San Jose, California, USA
Distance from station: ESE 42km
Updated: Mon, 24-Feb-2020 8:53pm PST
Clear
Clear
 Wind from WNW
Wind: WNW 6 mph , 9 km/h
Temperature: 54°F , 12°C
Dew Point: 43°F , 6°C
Humidity: 67%
Barometer: 30.29 inHg , 1025.7 hPa
Clouds: Clear
Visibility: 10 miles , 16 km
2020/02/25 04:53 KSJC 250453Z 29005KT 10SM CLR 12/06 A3029 RMK AO2 SLP256 T01170061
 
KLVK - Livermore, California, USA
Distance from station: ENE 49km
Updated: Mon, 24-Feb-2020 8:53pm PST
Clear
Clear
 Wind from E
Wind: E 3 mph , 6 km/h
Temperature: 54°F , 12°C
Dew Point: 43°F , 6°C
Humidity: 67%
Barometer: 30.28 inHg , 1025.4 hPa
Clouds: Clear
Visibility: 10 miles , 16 km
2020/02/25 04:53 KLVK 250453Z 10003KT 10SM CLR 12/06 A3028 RMK AO2 SLP253 T01170056
KRHV - San Jose/Reid, California, USA
Distance from station: ESE 53km
Updated: Mon, 24-Feb-2020 3:50pm PST
NOT Current
Clear
Clear
 Wind from NW
Wind: NW 8 mph , 13 km/h
Temperature: 68°F , 20°C
Dew Point: 43°F , 6°C
Humidity: 40%
Barometer: 30.27 inHg , 1025.1 hPa
Clouds: Clear
Visibility: 10 miles , 16 km
2020/02/24 23:50 KRHV 242350Z 32007KT 10SM SKC 20/06 A3027
 
KCCR - Concord, California, USA
Distance from station: NNE 56km
Updated: Mon, 24-Feb-2020 8:53pm PST
Clear
Clear
 Wind from calm
Wind: Calm
Temperature: 55°F , 13°C
Dew Point: 41°F , 5°C
Humidity: 59%
Barometer: 30.27 inHg , 1025.1 hPa
Clouds: Clear
Visibility: 10 miles , 16 km
2020/02/25 04:53 KCCR 250453Z 00000KT 10SM CLR 13/05 A3027 RMK AO2 SLP237 T01330050
KDVO - Novato/Gnoss Fld, California, USA
Distance from station: NNW 70km
Updated: Mon, 24-Feb-2020 8:55pm PST

 Wind from calm
Wind: Calm
Temperature: 48°F , 9°C
Dew Point: 45°F , 7°C
Humidity: 87%
Barometer: 30.29 inHg , 1025.7 hPa
Visibility: 10 miles , 16 km
2020/02/25 04:55 KDVO 250455Z AUTO 00000KT 10SM 09/07 A3029 RMK AO2
 
KAPC - Napa, California, USA
Distance from station: N 73km
Updated: Mon, 24-Feb-2020 8:54pm PST
Clear
Clear
 Wind from S
Wind: S 5 mph , 7 km/h
Temperature: 52°F , 11°C
Dew Point: 45°F , 7°C
Humidity: 77%
Barometer: 30.28 inHg , 1025.4 hPa
Clouds: Clear
Visibility: 10 miles , 16 km
2020/02/25 04:54 KAPC 250454Z AUTO 18004KT 10SM CLR 11/07 A3028 RMK AO2 SLP244 T01110067